sensor_id;sensor_type;location;lat;lon;timestamp;P1;durP1;ratioP1;P2;durP2;ratioP2
50757;SDS011;36732;47.980;11.652;2023-11-19T00:02:25;0.52;;;0.52;;
50757;SDS011;36732;47.980;11.652;2023-11-19T00:04:51;2.05;;;0.70;;
50757;SDS011;36732;47.980;11.652;2023-11-19T00:07:18;1.13;;;0.70;;
50757;SDS011;36732;47.980;11.652;2023-11-19T00:09:45;1.30;;;0.98;;
50757;SDS011;36732;47.980;11.652;2023-11-19T00:12:10;0.85;;;0.75;;
50757;SDS011;36732;47.980;11.652;2023-11-19T00:14:36;0.73;;;0.65;;
50757;SDS011;36732;47.980;11.652;2023-11-19T00:17:02;0.80;;;0.80;;
50757;SDS011;36732;47.980;11.652;2023-11-19T00:19:29;1.15;;;0.70;;
50757;SDS011;36732;47.980;11.652;2023-11-19T00:21:54;0.70;;;0.70;;
50757;SDS011;36732;47.980;11.652;2023-11-19T00:24:20;1.48;;;0.70;;
50757;SDS011;36732;47.980;11.652;2023-11-19T00:26:46;0.98;;;0.80;;
50757;SDS011;36732;47.980;11.652;2023-11-19T00:29:11;1.40;;;0.85;;
50757;SDS011;36732;47.980;11.652;2023-11-19T00:31:38;0.85;;;0.60;;
50757;SDS011;36732;47.980;11.652;2023-11-19T00:34:04;0.73;;;0.70;;
50757;SDS011;36732;47.980;11.652;2023-11-19T00:36:31;0.70;;;0.70;;
50757;SDS011;36732;47.980;11.652;2023-11-19T00:38:56;0.57;;;0.57;;
50757;SDS011;36732;47.980;11.652;2023-11-19T00:41:22;0.65;;;0.50;;
50757;SDS011;36732;47.980;11.652;2023-11-19T00:43:48;0.30;;;0.30;;
50757;SDS011;36732;47.980;11.652;2023-11-19T00:46:14;0.40;;;0.40;;
50757;SDS011;36732;47.980;11.652;2023-11-19T00:48:40;0.38;;;0.35;;
50757;SDS011;36732;47.980;11.652;2023-11-19T00:51:05;0.40;;;0.35;;
50757;SDS011;36732;47.980;11.652;2023-11-19T00:53:31;0.35;;;0.30;;
50757;SDS011;36732;47.980;11.652;2023-11-19T00:55:58;0.30;;;0.30;;
50757;SDS011;36732;47.980;11.652;2023-11-19T00:58:25;0.68;;;0.50;;
50757;SDS011;36732;47.980;11.652;2023-11-19T01:00:51;1.00;;;0.40;;
50757;SDS011;36732;47.980;11.652;2023-11-19T01:03:16;0.88;;;0.50;;
50757;SDS011;36732;47.980;11.652;2023-11-19T01:05:42;0.25;;;0.25;;
50757;SDS011;36732;47.980;11.652;2023-11-19T01:08:09;0.30;;;0.30;;
50757;SDS011;36732;47.980;11.652;2023-11-19T01:10:38;0.60;;;0.47;;
50757;SDS011;36732;47.980;11.652;2023-11-19T01:13:04;0.32;;;0.30;;
50757;SDS011;36732;47.980;11.652;2023-11-19T01:15:32;0.30;;;0.30;;
50757;SDS011;36732;47.980;11.652;2023-11-19T01:17:58;0.40;;;0.40;;
50757;SDS011;36732;47.980;11.652;2023-11-19T01:20:24;0.50;;;0.40;;
50757;SDS011;36732;47.980;11.652;2023-11-19T01:22:50;0.40;;;0.40;;
50757;SDS011;36732;47.980;11.652;2023-11-19T01:25:16;0.40;;;0.30;;
50757;SDS011;36732;47.980;11.652;2023-11-19T01:27:41;2.00;;;0.60;;
50757;SDS011;36732;47.980;11.652;2023-11-19T01:30:07;0.45;;;0.40;;
50757;SDS011;36732;47.980;11.652;2023-11-19T01:32:37;1.35;;;0.30;;
50757;SDS011;36732;47.980;11.652;2023-11-19T01:35:04;0.88;;;0.55;;
50757;SDS011;36732;47.980;11.652;2023-11-19T01:37:29;0.80;;;0.47;;
50757;SDS011;36732;47.980;11.652;2023-11-19T01:39:57;1.25;;;0.60;;
50757;SDS011;36732;47.980;11.652;2023-11-19T01:42:23;0.63;;;0.50;;
50757;SDS011;36732;47.980;11.652;2023-11-19T01:44:56;0.68;;;0.40;;
50757;SDS011;36732;47.980;11.652;2023-11-19T01:47:24;0.80;;;0.52;;
50757;SDS011;36732;47.980;11.652;2023-11-19T01:49:53;1.00;;;0.73;;
50757;SDS011;36732;47.980;11.652;2023-11-19T01:52:21;0.77;;;0.70;;
50757;SDS011;36732;47.980;11.652;2023-11-19T01:54:48;0.65;;;0.50;;
50757;SDS011;36732;47.980;11.652;2023-11-19T01:57:15;0.60;;;0.52;;
50757;SDS011;36732;47.980;11.652;2023-11-19T01:59:41;0.98;;;0.70;;
50757;SDS011;36732;47.980;11.652;2023-11-19T02:02:07;0.80;;;0.52;;
50757;SDS011;36732;47.980;11.652;2023-11-19T02:04:33;1.35;;;0.77;;
50757;SDS011;36732;47.980;11.652;2023-11-19T02:06:59;0.70;;;0.55;;
50757;SDS011;36732;47.980;11.652;2023-11-19T02:09:25;0.75;;;0.52;;
50757;SDS011;36732;47.980;11.652;2023-11-19T02:11:52;0.68;;;0.50;;
50757;SDS011;36732;47.980;11.652;2023-11-19T02:14:19;0.80;;;0.50;;
50757;SDS011;36732;47.980;11.652;2023-11-19T02:16:50;0.47;;;0.35;;
50757;SDS011;36732;47.980;11.652;2023-11-19T02:19:18;0.45;;;0.45;;
50757;SDS011;36732;47.980;11.652;2023-11-19T02:21:45;0.20;;;0.20;;
50757;SDS011;36732;47.980;11.652;2023-11-19T02:24:10;0.90;;;0.50;;
50757;SDS011;36732;47.980;11.652;2023-11-19T02:26:39;1.08;;;0.70;;
50757;SDS011;36732;47.980;11.652;2023-11-19T02:29:23;0.32;;;0.28;;
50757;SDS011;36732;47.980;11.652;2023-11-19T02:31:48;0.52;;;0.35;;
50757;SDS011;36732;47.980;11.652;2023-11-19T02:34:14;0.52;;;0.30;;
50757;SDS011;36732;47.980;11.652;2023-11-19T02:36:41;0.20;;;0.20;;
50757;SDS011;36732;47.980;11.652;2023-11-19T02:39:07;0.40;;;0.30;;
50757;SDS011;36732;47.980;11.652;2023-11-19T02:41:36;0.20;;;0.20;;
50757;SDS011;36732;47.980;11.652;2023-11-19T02:44:04;0.20;;;0.20;;
50757;SDS011;36732;47.980;11.652;2023-11-19T02:46:31;0.52;;;0.20;;
50757;SDS011;36732;47.980;11.652;2023-11-19T02:48:57;0.85;;;0.30;;
50757;SDS011;36732;47.980;11.652;2023-11-19T02:51:23;0.30;;;0.28;;
50757;SDS011;36732;47.980;11.652;2023-11-19T02:53:49;0.68;;;0.30;;
50757;SDS011;36732;47.980;11.652;2023-11-19T02:56:14;0.20;;;0.20;;
50757;SDS011;36732;47.980;11.652;2023-11-19T02:58:45;0.32;;;0.20;;
50757;SDS011;36732;47.980;11.652;2023-11-19T03:01:12;0.20;;;0.20;;
50757;SDS011;36732;47.980;11.652;2023-11-19T03:03:48;0.75;;;0.20;;
50757;SDS011;36732;47.980;11.652;2023-11-19T03:06:19;0.30;;;0.20;;
50757;SDS011;36732;47.980;11.652;2023-11-19T03:08:46;0.22;;;0.22;;
50757;SDS011;36732;47.980;11.652;2023-11-19T03:11:13;0.17;;;0.17;;
50757;SDS011;36732;47.980;11.652;2023-11-19T03:13:38;0.30;;;0.30;;
50757;SDS011;36732;47.980;11.652;2023-11-19T03:16:04;0.20;;;0.20;;
50757;SDS011;36732;47.980;11.652;2023-11-19T03:18:30;0.20;;;0.20;;
50757;SDS011;36732;47.980;11.652;2023-11-19T03:20:56;0.20;;;0.20;;
50757;SDS011;36732;47.980;11.652;2023-11-19T03:23:25;0.90;;;0.25;;
50757;SDS011;36732;47.980;11.652;2023-11-19T03:25:53;0.30;;;0.20;;
50757;SDS011;36732;47.980;11.652;2023-11-19T03:28:19;0.20;;;0.20;;
50757;SDS011;36732;47.980;11.652;2023-11-19T03:30:45;0.30;;;0.20;;
50757;SDS011;36732;47.980;11.652;2023-11-19T03:33:10;1.35;;;0.22;;
50757;SDS011;36732;47.980;11.652;2023-11-19T03:35:36;1.15;;;0.30;;
50757;SDS011;36732;47.980;11.652;2023-11-19T03:38:02;0.15;;;0.15;;
50757;SDS011;36732;47.980;11.652;2023-11-19T03:40:28;0.20;;;0.20;;
50757;SDS011;36732;47.980;11.652;2023-11-19T03:42:57;0.10;;;0.10;;
50757;SDS011;36732;47.980;11.652;2023-11-19T03:45:23;0.70;;;0.28;;
50757;SDS011;36732;47.980;11.652;2023-11-19T03:47:49;1.40;;;0.13;;
50757;SDS011;36732;47.980;11.652;2023-11-19T03:50:15;0.20;;;0.20;;
50757;SDS011;36732;47.980;11.652;2023-11-19T03:52:41;0.38;;;0.30;;
50757;SDS011;36732;47.980;11.652;2023-11-19T03:55:08;0.77;;;0.50;;
50757;SDS011;36732;47.980;11.652;2023-11-19T03:57:34;0.47;;;0.20;;
50757;SDS011;36732;47.980;11.652;2023-11-19T04:00:00;0.30;;;0.30;;
50757;SDS011;36732;47.980;11.652;2023-11-19T04:02:33;0.45;;;0.25;;
50757;SDS011;36732;47.980;11.652;2023-11-19T04:04:58;0.03;;;0.03;;
50757;SDS011;36732;47.980;11.652;2023-11-19T04:07:24;0.20;;;0.20;;
50757;SDS011;36732;47.980;11.652;2023-11-19T04:09:50;0.22;;;0.20;;
50757;SDS011;36732;47.980;11.652;2023-11-19T04:12:15;0.85;;;0.22;;
50757;SDS011;36732;47.980;11.652;2023-11-19T04:14:41;1.02;;;0.30;;
50757;SDS011;36732;47.980;11.652;2023-11-19T04:17:07;0.20;;;0.20;;
50757;SDS011;36732;47.980;11.652;2023-11-19T04:19:33;0.65;;;0.43;;
50757;SDS011;36732;47.980;11.652;2023-11-19T04:21:58;1.65;;;0.40;;
50757;SDS011;36732;47.980;11.652;2023-11-19T04:24:24;0.38;;;0.22;;
50757;SDS011;36732;47.980;11.652;2023-11-19T04:26:50;0.30;;;0.20;;
50757;SDS011;36732;47.980;11.652;2023-11-19T04:29:16;0.60;;;0.30;;
50757;SDS011;36732;47.980;11.652;2023-11-19T04:31:42;0.20;;;0.20;;
50757;SDS011;36732;47.980;11.652;2023-11-19T04:34:09;0.32;;;0.20;;
50757;SDS011;36732;47.980;11.652;2023-11-19T04:36:36;0.20;;;0.20;;
50757;SDS011;36732;47.980;11.652;2023-11-19T04:39:02;0.25;;;0.25;;
50757;SDS011;36732;47.980;11.652;2023-11-19T04:41:34;0.40;;;0.25;;
50757;SDS011;36732;47.980;11.652;2023-11-19T04:44:01;0.22;;;0.22;;
50757;SDS011;36732;47.980;11.652;2023-11-19T04:46:27;0.28;;;0.28;;
50757;SDS011;36732;47.980;11.652;2023-11-19T04:48:52;0.15;;;0.15;;
50757;SDS011;36732;47.980;11.652;2023-11-19T04:51:18;0.10;;;0.10;;
50757;SDS011;36732;47.980;11.652;2023-11-19T04:53:44;0.38;;;0.25;;
50757;SDS011;36732;47.980;11.652;2023-11-19T04:56:10;0.28;;;0.22;;
50757;SDS011;36732;47.980;11.652;2023-11-19T04:58:37;0.63;;;0.20;;
50757;SDS011;36732;47.980;11.652;2023-11-19T05:01:03;0.75;;;0.30;;
50757;SDS011;36732;47.980;11.652;2023-11-19T05:03:30;0.20;;;0.20;;
50757;SDS011;36732;47.980;11.652;2023-11-19T05:05:56;0.52;;;0.30;;
50757;SDS011;36732;47.980;11.652;2023-11-19T05:08:22;0.20;;;0.20;;
50757;SDS011;36732;47.980;11.652;2023-11-19T05:10:48;0.30;;;0.20;;
50757;SDS011;36732;47.980;11.652;2023-11-19T05:13:14;0.10;;;0.10;;
50757;SDS011;36732;47.980;11.652;2023-11-19T05:15:40;0.70;;;0.20;;
50757;SDS011;36732;47.980;11.652;2023-11-19T05:18:06;0.57;;;0.20;;
50757;SDS011;36732;47.980;11.652;2023-11-19T05:20:31;0.20;;;0.20;;
50757;SDS011;36732;47.980;11.652;2023-11-19T05:22:57;0.40;;;0.20;;
50757;SDS011;36732;47.980;11.652;2023-11-19T05:25:25;0.75;;;0.20;;
50757;SDS011;36732;47.980;11.652;2023-11-19T05:27:52;0.10;;;0.10;;
50757;SDS011;36732;47.980;11.652;2023-11-19T05:30:18;0.13;;;0.13;;
50757;SDS011;36732;47.980;11.652;2023-11-19T05:32:44;0.90;;;0.20;;
50757;SDS011;36732;47.980;11.652;2023-11-19T05:35:10;0.30;;;0.25;;
50757;SDS011;36732;47.980;11.652;2023-11-19T05:37:36;0.60;;;0.35;;
50757;SDS011;36732;47.980;11.652;2023-11-19T05:40:02;0.30;;;0.30;;
50757;SDS011;36732;47.980;11.652;2023-11-19T05:42:32;0.28;;;0.25;;
50757;SDS011;36732;47.980;11.652;2023-11-19T05:44:59;0.25;;;0.25;;
50757;SDS011;36732;47.980;11.652;2023-11-19T05:47:24;0.28;;;0.20;;
50757;SDS011;36732;47.980;11.652;2023-11-19T05:49:50;0.20;;;0.20;;
50757;SDS011;36732;47.980;11.652;2023-11-19T05:52:16;0.40;;;0.20;;
50757;SDS011;36732;47.980;11.652;2023-11-19T05:54:41;0.13;;;0.13;;
50757;SDS011;36732;47.980;11.652;2023-11-19T05:57:07;0.45;;;0.20;;
50757;SDS011;36732;47.980;11.652;2023-11-19T05:59:34;1.08;;;0.20;;
50757;SDS011;36732;47.980;11.652;2023-11-19T06:02:01;0.10;;;0.10;;
50757;SDS011;36732;47.980;11.652;2023-11-19T06:04:27;0.20;;;0.20;;
50757;SDS011;36732;47.980;11.652;2023-11-19T06:06:53;0.30;;;0.30;;
50757;SDS011;36732;47.980;11.652;2023-11-19T06:09:20;0.28;;;0.28;;
50757;SDS011;36732;47.980;11.652;2023-11-19T06:11:48;0.20;;;0.10;;
50757;SDS011;36732;47.980;11.652;2023-11-19T06:14:15;0.25;;;0.20;;
50757;SDS011;36732;47.980;11.652;2023-11-19T06:16:41;0.10;;;0.10;;
50757;SDS011;36732;47.980;11.652;2023-11-19T06:19:07;0.17;;;0.17;;
50757;SDS011;36732;47.980;11.652;2023-11-19T06:21:33;0.15;;;0.13;;
50757;SDS011;36732;47.980;11.652;2023-11-19T06:24:00;0.50;;;0.30;;
50757;SDS011;36732;47.980;11.652;2023-11-19T06:26:26;0.25;;;0.20;;
50757;SDS011;36732;47.980;11.652;2023-11-19T06:28:52;1.20;;;0.10;;
50757;SDS011;36732;47.980;11.652;2023-11-19T06:31:18;0.17;;;0.17;;
50757;SDS011;36732;47.980;11.652;2023-11-19T06:33:43;0.25;;;0.25;;
50757;SDS011;36732;47.980;11.652;2023-11-19T06:36:09;0.20;;;0.20;;
50757;SDS011;36732;47.980;11.652;2023-11-19T06:38:35;0.10;;;0.10;;
50757;SDS011;36732;47.980;11.652;2023-11-19T06:41:01;0.17;;;0.17;;
50757;SDS011;36732;47.980;11.652;2023-11-19T06:43:27;0.43;;;0.30;;
50757;SDS011;36732;47.980;11.652;2023-11-19T06:45:53;0.20;;;0.20;;
50757;SDS011;36732;47.980;11.652;2023-11-19T06:48:19;0.20;;;0.20;;
50757;SDS011;36732;47.980;11.652;2023-11-19T06:50:45;0.40;;;0.20;;
50757;SDS011;36732;47.980;11.652;2023-11-19T06:53:11;0.30;;;0.30;;
50757;SDS011;36732;47.980;11.652;2023-11-19T06:55:36;0.40;;;0.40;;
50757;SDS011;36732;47.980;11.652;2023-11-19T06:58:02;0.50;;;0.30;;
50757;SDS011;36732;47.980;11.652;2023-11-19T07:00:28;0.20;;;0.20;;
50757;SDS011;36732;47.980;11.652;2023-11-19T07:02:57;0.20;;;0.20;;
50757;SDS011;36732;47.980;11.652;2023-11-19T07:05:24;0.22;;;0.22;;
50757;SDS011;36732;47.980;11.652;2023-11-19T07:07:50;0.10;;;0.10;;
50757;SDS011;36732;47.980;11.652;2023-11-19T07:10:15;0.20;;;0.20;;
50757;SDS011;36732;47.980;11.652;2023-11-19T07:12:41;0.25;;;0.25;;
50757;SDS011;36732;47.980;11.652;2023-11-19T07:15:07;0.40;;;0.40;;
50757;SDS011;36732;47.980;11.652;2023-11-19T07:17:38;0.20;;;0.20;;
50757;SDS011;36732;47.980;11.652;2023-11-19T07:20:05;0.43;;;0.43;;
50757;SDS011;36732;47.980;11.652;2023-11-19T07:22:31;0.55;;;0.40;;
50757;SDS011;36732;47.980;11.652;2023-11-19T07:24:57;0.28;;;0.28;;
50757;SDS011;36732;47.980;11.652;2023-11-19T07:27:23;0.30;;;0.30;;
50757;SDS011;36732;47.980;11.652;2023-11-19T07:29:50;0.77;;;0.70;;
50757;SDS011;36732;47.980;11.652;2023-11-19T07:32:16;0.50;;;0.45;;
50757;SDS011;36732;47.980;11.652;2023-11-19T07:34:41;0.28;;;0.28;;
50757;SDS011;36732;47.980;11.652;2023-11-19T07:37:07;0.47;;;0.40;;
50757;SDS011;36732;47.980;11.652;2023-11-19T07:39:33;0.43;;;0.30;;
50757;SDS011;36732;47.980;11.652;2023-11-19T07:42:00;0.20;;;0.20;;
50757;SDS011;36732;47.980;11.652;2023-11-19T07:44:25;0.30;;;0.30;;
50757;SDS011;36732;47.980;11.652;2023-11-19T07:46:51;0.47;;;0.30;;
50757;SDS011;36732;47.980;11.652;2023-11-19T07:49:17;0.22;;;0.22;;
50757;SDS011;36732;47.980;11.652;2023-11-19T07:51:42;0.28;;;0.20;;
50757;SDS011;36732;47.980;11.652;2023-11-19T07:54:08;0.20;;;0.20;;
50757;SDS011;36732;47.980;11.652;2023-11-19T07:56:34;0.20;;;0.20;;
50757;SDS011;36732;47.980;11.652;2023-11-19T07:59:00;0.65;;;0.20;;
50757;SDS011;36732;47.980;11.652;2023-11-19T08:01:27;0.20;;;0.20;;
50757;SDS011;36732;47.980;11.652;2023-11-19T08:03:53;0.52;;;0.50;;
50757;SDS011;36732;47.980;11.652;2023-11-19T08:06:19;0.50;;;0.50;;
50757;SDS011;36732;47.980;11.652;2023-11-19T08:08:44;0.35;;;0.35;;
50757;SDS011;36732;47.980;11.652;2023-11-19T08:11:10;0.40;;;0.40;;
50757;SDS011;36732;47.980;11.652;2023-11-19T08:13:36;0.55;;;0.40;;
50757;SDS011;36732;47.980;11.652;2023-11-19T08:16:01;0.30;;;0.30;;
50757;SDS011;36732;47.980;11.652;2023-11-19T08:18:27;0.20;;;0.20;;
50757;SDS011;36732;47.980;11.652;2023-11-19T08:20:53;0.20;;;0.20;;
50757;SDS011;36732;47.980;11.652;2023-11-19T08:23:19;0.20;;;0.20;;
50757;SDS011;36732;47.980;11.652;2023-11-19T08:25:45;0.25;;;0.25;;
50757;SDS011;36732;47.980;11.652;2023-11-19T08:28:11;0.30;;;0.20;;
50757;SDS011;36732;47.980;11.652;2023-11-19T08:30:37;0.40;;;0.20;;
50757;SDS011;36732;47.980;11.652;2023-11-19T08:33:03;0.20;;;0.20;;
50757;SDS011;36732;47.980;11.652;2023-11-19T08:35:30;0.25;;;0.25;;
50757;SDS011;36732;47.980;11.652;2023-11-19T08:37:56;0.20;;;0.20;;
50757;SDS011;36732;47.980;11.652;2023-11-19T08:40:23;0.35;;;0.35;;
50757;SDS011;36732;47.980;11.652;2023-11-19T08:42:50;0.30;;;0.30;;
50757;SDS011;36732;47.980;11.652;2023-11-19T08:45:16;0.17;;;0.17;;
50757;SDS011;36732;47.980;11.652;2023-11-19T08:47:42;0.10;;;0.10;;
50757;SDS011;36732;47.980;11.652;2023-11-19T08:50:10;0.22;;;0.22;;
50757;SDS011;36732;47.980;11.652;2023-11-19T08:52:36;1.35;;;0.88;;
50757;SDS011;36732;47.980;11.652;2023-11-19T08:55:02;1.52;;;1.15;;
50757;SDS011;36732;47.980;11.652;2023-11-19T08:57:30;0.70;;;0.60;;
50757;SDS011;36732;47.980;11.652;2023-11-19T08:59:57;0.57;;;0.52;;
50757;SDS011;36732;47.980;11.652;2023-11-19T09:02:23;0.88;;;0.63;;
50757;SDS011;36732;47.980;11.652;2023-11-19T09:04:49;1.05;;;0.70;;
50757;SDS011;36732;47.980;11.652;2023-11-19T09:07:14;0.50;;;0.40;;
50757;SDS011;36732;47.980;11.652;2023-11-19T09:09:40;0.35;;;0.35;;
50757;SDS011;36732;47.980;11.652;2023-11-19T09:12:06;0.25;;;0.25;;
50757;SDS011;36732;47.980;11.652;2023-11-19T09:14:32;0.30;;;0.30;;
50757;SDS011;36732;47.980;11.652;2023-11-19T09:16:58;0.30;;;0.30;;
50757;SDS011;36732;47.980;11.652;2023-11-19T09:19:24;0.40;;;0.40;;
50757;SDS011;36732;47.980;11.652;2023-11-19T09:21:51;0.60;;;0.40;;
50757;SDS011;36732;47.980;11.652;2023-11-19T09:24:18;0.45;;;0.43;;
50757;SDS011;36732;47.980;11.652;2023-11-19T09:26:43;1.23;;;0.50;;
50757;SDS011;36732;47.980;11.652;2023-11-19T09:29:09;0.50;;;0.30;;
50757;SDS011;36732;47.980;11.652;2023-11-19T09:31:37;0.20;;;0.20;;
50757;SDS011;36732;47.980;11.652;2023-11-19T09:34:03;0.85;;;0.30;;
50757;SDS011;36732;47.980;11.652;2023-11-19T09:36:30;0.10;;;0.10;;
50757;SDS011;36732;47.980;11.652;2023-11-19T09:38:56;4.78;;;0.30;;
50757;SDS011;36732;47.980;11.652;2023-11-19T09:41:22;0.20;;;0.20;;
50757;SDS011;36732;47.980;11.652;2023-11-19T09:43:48;0.20;;;0.20;;
50757;SDS011;36732;47.980;11.652;2023-11-19T09:46:15;0.20;;;0.20;;
50757;SDS011;36732;47.980;11.652;2023-11-19T09:48:42;0.30;;;0.30;;
50757;SDS011;36732;47.980;11.652;2023-11-19T09:51:08;0.20;;;0.20;;
50757;SDS011;36732;47.980;11.652;2023-11-19T09:53:35;0.20;;;0.20;;
50757;SDS011;36732;47.980;11.652;2023-11-19T09:56:05;1.17;;;0.20;;
50757;SDS011;36732;47.980;11.652;2023-11-19T09:58:33;0.25;;;0.25;;
50757;SDS011;36732;47.980;11.652;2023-11-19T10:00:59;0.20;;;0.20;;
50757;SDS011;36732;47.980;11.652;2023-11-19T10:03:34;0.30;;;0.30;;
50757;SDS011;36732;47.980;11.652;2023-11-19T10:06:04;0.20;;;0.20;;
50757;SDS011;36732;47.980;11.652;2023-11-19T10:08:33;0.30;;;0.30;;
50757;SDS011;36732;47.980;11.652;2023-11-19T10:11:01;0.75;;;0.30;;
50757;SDS011;36732;47.980;11.652;2023-11-19T10:13:27;0.20;;;0.20;;
50757;SDS011;36732;47.980;11.652;2023-11-19T10:15:54;0.20;;;0.20;;
50757;SDS011;36732;47.980;11.652;2023-11-19T10:18:25;0.40;;;0.30;;
50757;SDS011;36732;47.980;11.652;2023-11-19T10:20:52;0.38;;;0.22;;
50757;SDS011;36732;47.980;11.652;2023-11-19T10:23:19;0.40;;;0.30;;
50757;SDS011;36732;47.980;11.652;2023-11-19T10:25:45;0.20;;;0.20;;
50757;SDS011;36732;47.980;11.652;2023-11-19T10:28:11;0.20;;;0.20;;
50757;SDS011;36732;47.980;11.652;2023-11-19T10:30:41;0.22;;;0.22;;
50757;SDS011;36732;47.980;11.652;2023-11-19T10:33:10;1.75;;;0.25;;
50757;SDS011;36732;47.980;11.652;2023-11-19T10:35:52;0.20;;;0.20;;
50757;SDS011;36732;47.980;11.652;2023-11-19T10:38:20;0.20;;;0.20;;
50757;SDS011;36732;47.980;11.652;2023-11-19T10:40:49;0.52;;;0.20;;
50757;SDS011;36732;47.980;11.652;2023-11-19T10:43:19;0.20;;;0.20;;
50757;SDS011;36732;47.980;11.652;2023-11-19T10:45:47;0.10;;;0.10;;
50757;SDS011;36732;47.980;11.652;2023-11-19T10:48:13;0.20;;;0.20;;
50757;SDS011;36732;47.980;11.652;2023-11-19T10:50:40;0.30;;;0.30;;
50757;SDS011;36732;47.980;11.652;2023-11-19T10:53:08;0.20;;;0.20;;
50757;SDS011;36732;47.980;11.652;2023-11-19T10:55:38;0.30;;;0.28;;
50757;SDS011;36732;47.980;11.652;2023-11-19T10:58:05;0.20;;;0.20;;
50757;SDS011;36732;47.980;11.652;2023-11-19T11:03:25;0.55;;;0.30;;
50757;SDS011;36732;47.980;11.652;2023-11-19T11:05:52;0.45;;;0.30;;
50757;SDS011;36732;47.980;11.652;2023-11-19T11:08:19;0.22;;;0.22;;
50757;SDS011;36732;47.980;11.652;2023-11-19T11:13:23;0.25;;;0.22;;
50757;SDS011;36732;47.980;11.652;2023-11-19T11:15:50;0.22;;;0.22;;
50757;SDS011;36732;47.980;11.652;2023-11-19T11:18:16;0.47;;;0.30;;
50757;SDS011;36732;47.980;11.652;2023-11-19T11:20:46;0.20;;;0.20;;
50757;SDS011;36732;47.980;11.652;2023-11-19T11:37:32;0.22;;;0.22;;
50757;SDS011;36732;47.980;11.652;2023-11-19T11:40:03;0.20;;;0.20;;
50757;SDS011;36732;47.980;11.652;2023-11-19T11:42:35;0.40;;;0.35;;
50757;SDS011;36732;47.980;11.652;2023-11-19T11:50:17;0.20;;;0.20;;
50757;SDS011;36732;47.980;11.652;2023-11-19T11:58:01;0.13;;;0.13;;
50757;SDS011;36732;47.980;11.652;2023-11-19T12:00:37;0.20;;;0.20;;
50757;SDS011;36732;47.980;11.652;2023-11-19T12:03:05;0.20;;;0.20;;
50757;SDS011;36732;47.980;11.652;2023-11-19T12:05:33;0.20;;;0.20;;
50757;SDS011;36732;47.980;11.652;2023-11-19T12:08:06;0.30;;;0.27;;
50757;SDS011;36732;47.980;11.652;2023-11-19T12:10:45;0.50;;;0.30;;
50757;SDS011;36732;47.980;11.652;2023-11-19T12:13:12;0.20;;;0.20;;
50757;SDS011;36732;47.980;11.652;2023-11-19T12:18:23;1.25;;;0.40;;
50757;SDS011;36732;47.980;11.652;2023-11-19T12:20:53;0.35;;;0.20;;
50757;SDS011;36732;47.980;11.652;2023-11-19T12:23:20;0.20;;;0.20;;
50757;SDS011;36732;47.980;11.652;2023-11-19T12:25:47;0.20;;;0.20;;
50757;SDS011;36732;47.980;11.652;2023-11-19T12:28:13;0.10;;;0.10;;
50757;SDS011;36732;47.980;11.652;2023-11-19T12:30:42;1.15;;;0.43;;
50757;SDS011;36732;47.980;11.652;2023-11-19T12:33:13;0.20;;;0.20;;
50757;SDS011;36732;47.980;11.652;2023-11-19T12:35:40;0.20;;;0.20;;
50757;SDS011;36732;47.980;11.652;2023-11-19T12:38:07;0.20;;;0.20;;
50757;SDS011;36732;47.980;11.652;2023-11-19T12:40:33;0.40;;;0.30;;
50757;SDS011;36732;47.980;11.652;2023-11-19T12:42:58;0.20;;;0.20;;
50757;SDS011;36732;47.980;11.652;2023-11-19T12:45:25;0.90;;;0.40;;
50757;SDS011;36732;47.980;11.652;2023-11-19T12:48:04;0.73;;;0.20;;
50757;SDS011;36732;47.980;11.652;2023-11-19T12:50:50;0.30;;;0.30;;
50757;SDS011;36732;47.980;11.652;2023-11-19T12:53:20;1.55;;;0.20;;
50757;SDS011;36732;47.980;11.652;2023-11-19T12:55:47;0.30;;;0.30;;
50757;SDS011;36732;47.980;11.652;2023-11-19T13:01:05;0.25;;;0.22;;
50757;SDS011;36732;47.980;11.652;2023-11-19T13:03:32;0.40;;;0.20;;
50757;SDS011;36732;47.980;11.652;2023-11-19T13:06:01;0.30;;;0.22;;
50757;SDS011;36732;47.980;11.652;2023-11-19T13:08:43;0.20;;;0.20;;
50757;SDS011;36732;47.980;11.652;2023-11-19T13:11:10;0.38;;;0.30;;
50757;SDS011;36732;47.980;11.652;2023-11-19T13:13:57;0.90;;;0.20;;
50757;SDS011;36732;47.980;11.652;2023-11-19T13:16:29;0.20;;;0.20;;
50757;SDS011;36732;47.980;11.652;2023-11-19T13:18:55;0.30;;;0.30;;
50757;SDS011;36732;47.980;11.652;2023-11-19T13:21:22;0.30;;;0.30;;
50757;SDS011;36732;47.980;11.652;2023-11-19T13:23:48;0.30;;;0.25;;
50757;SDS011;36732;47.980;11.652;2023-11-19T13:26:14;0.20;;;0.20;;
50757;SDS011;36732;47.980;11.652;2023-11-19T13:28:40;0.10;;;0.10;;
50757;SDS011;36732;47.980;11.652;2023-11-19T13:31:06;0.35;;;0.35;;
50757;SDS011;36732;47.980;11.652;2023-11-19T13:33:32;0.47;;;0.30;;
50757;SDS011;36732;47.980;11.652;2023-11-19T13:35:59;0.32;;;0.25;;
50757;SDS011;36732;47.980;11.652;2023-11-19T13:38:30;0.43;;;0.30;;
50757;SDS011;36732;47.980;11.652;2023-11-19T13:40:57;0.47;;;0.30;;
50757;SDS011;36732;47.980;11.652;2023-11-19T13:43:24;1.02;;;0.38;;
50757;SDS011;36732;47.980;11.652;2023-11-19T13:45:50;0.57;;;0.40;;
50757;SDS011;36732;47.980;11.652;2023-11-19T13:48:18;0.60;;;0.50;;
50757;SDS011;36732;47.980;11.652;2023-11-19T13:50:43;2.17;;;0.30;;
50757;SDS011;36732;47.980;11.652;2023-11-19T13:53:10;0.30;;;0.30;;
50757;SDS011;36732;47.980;11.652;2023-11-19T13:55:35;0.30;;;0.30;;
50757;SDS011;36732;47.980;11.652;2023-11-19T13:58:01;0.70;;;0.45;;
50757;SDS011;36732;47.980;11.652;2023-11-19T14:00:27;0.40;;;0.40;;
50757;SDS011;36732;47.980;11.652;2023-11-19T14:02:52;0.70;;;0.40;;
50757;SDS011;36732;47.980;11.652;2023-11-19T14:05:18;0.55;;;0.15;;
50757;SDS011;36732;47.980;11.652;2023-11-19T14:07:44;0.63;;;0.40;;
50757;SDS011;36732;47.980;11.652;2023-11-19T14:10:13;0.95;;;0.40;;
50757;SDS011;36732;47.980;11.652;2023-11-19T14:12:40;0.20;;;0.20;;
50757;SDS011;36732;47.980;11.652;2023-11-19T14:15:06;0.30;;;0.30;;
50757;SDS011;36732;47.980;11.652;2023-11-19T14:17:40;0.22;;;0.22;;
50757;SDS011;36732;47.980;11.652;2023-11-19T14:20:06;4.35;;;0.55;;
50757;SDS011;36732;47.980;11.652;2023-11-19T14:22:38;0.35;;;0.20;;
50757;SDS011;36732;47.980;11.652;2023-11-19T14:25:05;0.50;;;0.30;;
50757;SDS011;36732;47.980;11.652;2023-11-19T14:27:35;0.95;;;0.30;;
50757;SDS011;36732;47.980;11.652;2023-11-19T14:30:05;0.60;;;0.40;;
50757;SDS011;36732;47.980;11.652;2023-11-19T14:32:33;0.30;;;0.30;;
50757;SDS011;36732;47.980;11.652;2023-11-19T14:35:00;0.30;;;0.30;;
50757;SDS011;36732;47.980;11.652;2023-11-19T14:37:26;0.40;;;0.40;;
50757;SDS011;36732;47.980;11.652;2023-11-19T14:39:52;0.30;;;0.20;;
50757;SDS011;36732;47.980;11.652;2023-11-19T14:42:17;0.82;;;0.20;;
50757;SDS011;36732;47.980;11.652;2023-11-19T14:44:43;0.68;;;0.28;;
50757;SDS011;36732;47.980;11.652;2023-11-19T14:47:09;0.38;;;0.30;;
50757;SDS011;36732;47.980;11.652;2023-11-19T14:49:35;0.30;;;0.30;;
50757;SDS011;36732;47.980;11.652;2023-11-19T14:52:02;2.15;;;0.70;;
50757;SDS011;36732;47.980;11.652;2023-11-19T14:54:29;1.23;;;0.57;;
50757;SDS011;36732;47.980;11.652;2023-11-19T14:56:55;0.55;;;0.55;;
50757;SDS011;36732;47.980;11.652;2023-11-19T14:59:21;0.30;;;0.30;;
50757;SDS011;36732;47.980;11.652;2023-11-19T15:01:47;0.30;;;0.30;;
50757;SDS011;36732;47.980;11.652;2023-11-19T15:04:13;0.35;;;0.35;;
50757;SDS011;36732;47.980;11.652;2023-11-19T15:06:38;0.80;;;0.40;;
50757;SDS011;36732;47.980;11.652;2023-11-19T15:09:04;0.45;;;0.40;;